sensor_id;sensor_type;location;lat;lon;timestamp;pressure;altitude;pressure_sealevel;temperature;humidity
14273;BME280;7220;49.450;11.052;2023-01-30T00:00:30;98706.69;;;-2.67;98.92
14273;BME280;7220;49.450;11.052;2023-01-30T00:04:31;98694.53;;;-2.68;99.18
14273;BME280;7220;49.450;11.052;2023-01-30T00:08:31;98692.81;;;-2.63;99.16
14273;BME280;7220;49.450;11.052;2023-01-30T00:12:32;98678.91;;;-2.68;99.46
14273;BME280;7220;49.450;11.052;2023-01-30T00:16:32;98674.56;;;-2.70;99.57
14273;BME280;7220;49.450;11.052;2023-01-30T00:20:33;98649.47;;;-2.64;99.71
14273;BME280;7220;49.450;11.052;2023-01-30T00:24:33;98644.28;;;-2.63;99.57
14273;BME280;7220;49.450;11.052;2023-01-30T00:28:33;98643.34;;;-2.70;100.00
14273;BME280;7220;49.450;11.052;2023-01-30T00:32:34;98645.94;;;-2.70;100.00
14273;BME280;7220;49.450;11.052;2023-01-30T00:36:34;98634.72;;;-2.65;100.00
14273;BME280;7220;49.450;11.052;2023-01-30T00:40:34;98659.81;;;-2.71;100.00
14273;BME280;7220;49.450;11.052;2023-01-30T00:44:34;98673.72;;;-2.68;100.00
14273;BME280;7220;49.450;11.052;2023-01-30T00:48:53;98684.03;;;-2.81;100.00
14273;BME280;7220;49.450;11.052;2023-01-30T00:52:53;98696.22;;;-2.74;100.00
14273;BME280;7220;49.450;11.052;2023-01-30T00:56:54;98707.56;;;-2.62;100.00
14273;BME280;7220;49.450;11.052;2023-01-30T01:00:54;98726.72;;;-2.56;100.00
14273;BME280;7220;49.450;11.052;2023-01-30T01:04:55;98716.41;;;-2.39;100.00
14273;BME280;7220;49.450;11.052;2023-01-30T01:08:55;98711.31;;;-2.26;100.00
14273;BME280;7220;49.450;11.052;2023-01-30T01:12:55;98712.16;;;-2.26;100.00
14273;BME280;7220;49.450;11.052;2023-01-30T01:16:56;98686.19;;;-2.16;100.00
14273;BME280;7220;49.450;11.052;2023-01-30T01:20:56;98687.94;;;-2.11;100.00
14273;BME280;7220;49.450;11.052;2023-01-30T01:24:56;98694.03;;;-2.06;100.00
14273;BME280;7220;49.450;11.052;2023-01-30T01:28:57;98698.41;;;-2.01;100.00
14273;BME280;7220;49.450;11.052;2023-01-30T01:32:58;98691.53;;;-1.84;100.00
14273;BME280;7220;49.450;11.052;2023-01-30T01:36:58;98677.63;;;-1.83;100.00
14273;BME280;7220;49.450;11.052;2023-01-30T01:40:59;98674.22;;;-1.72;100.00
14273;BME280;7220;49.450;11.052;2023-01-30T01:49:26;98640.41;;;-1.49;100.00
14273;BME280;7220;49.450;11.052;2023-01-30T01:53:32;98623.91;;;-1.37;100.00
14273;BME280;7220;49.450;11.052;2023-01-30T01:57:39;98634.31;;;-1.28;100.00
14273;BME280;7220;49.450;11.052;2023-01-30T02:01:41;98622.16;;;-1.26;100.00
14273;BME280;7220;49.450;11.052;2023-01-30T02:05:45;98615.22;;;-1.18;100.00
14273;BME280;7220;49.450;11.052;2023-01-30T02:09:48;98594.34;;;-1.15;100.00
14273;BME280;7220;49.450;11.052;2023-01-30T02:13:49;98592.63;;;-1.13;100.00
14273;BME280;7220;49.450;11.052;2023-01-30T02:17:50;98570.03;;;-1.14;100.00
14273;BME280;7220;49.450;11.052;2023-01-30T02:22:16;98564.78;;;-1.07;100.00
14273;BME280;7220;49.450;11.052;2023-01-30T02:35:08;98517.81;;;-0.92;100.00
14273;BME280;7220;49.450;11.052;2023-01-30T02:39:38;98508.22;;;-0.87;100.00
14273;BME280;7220;49.450;11.052;2023-01-30T02:48:04;98537.81;;;-0.91;100.00
14273;BME280;7220;49.450;11.052;2023-01-30T02:52:07;98510.81;;;-0.81;100.00
14273;BME280;7220;49.450;11.052;2023-01-30T02:56:08;98512.50;;;-0.70;100.00
14273;BME280;7220;49.450;11.052;2023-01-30T03:00:09;98502.03;;;-0.64;100.00
14273;BME280;7220;49.450;11.052;2023-01-30T03:04:29;98508.09;;;-0.56;100.00
14273;BME280;7220;49.450;11.052;2023-01-30T03:17:27;98474.97;;;-0.40;100.00
14273;BME280;7220;49.450;11.052;2023-01-30T03:21:28;98460.19;;;-0.42;100.00
14273;BME280;7220;49.450;11.052;2023-01-30T03:25:29;98455.81;;;-0.42;100.00
14273;BME280;7220;49.450;11.052;2023-01-30T03:29:30;98448.00;;;-0.40;100.00
14273;BME280;7220;49.450;11.052;2023-01-30T03:33:30;98432.34;;;-0.40;100.00
14273;BME280;7220;49.450;11.052;2023-01-30T03:37:31;98435.81;;;-0.40;100.00
14273;BME280;7220;49.450;11.052;2023-01-30T03:41:31;98433.13;;;-0.29;99.71
14273;BME280;7220;49.450;11.052;2023-01-30T03:45:31;98440.13;;;-0.33;99.64
14273;BME280;7220;49.450;11.052;2023-01-30T03:49:32;98448.81;;;-0.30;98.88
14273;BME280;7220;49.450;11.052;2023-01-30T03:53:32;98423.56;;;-0.30;99.96
14273;BME280;7220;49.450;11.052;2023-01-30T03:57:32;98423.44;;;-0.14;98.97
14273;BME280;7220;49.450;11.052;2023-01-30T04:01:33;98424.31;;;-0.16;99.19
14273;BME280;7220;49.450;11.052;2023-01-30T04:05:33;98419.09;;;-0.14;98.46
14273;BME280;7220;49.450;11.052;2023-01-30T04:09:33;98423.47;;;-0.13;98.47
14273;BME280;7220;49.450;11.052;2023-01-30T04:13:33;98446.03;;;-0.04;98.19
14273;BME280;7220;49.450;11.052;2023-01-30T04:17:34;98441.75;;;-0.13;98.12
14273;BME280;7220;49.450;11.052;2023-01-30T04:21:34;98430.34;;;-0.07;98.40
14273;BME280;7220;49.450;11.052;2023-01-30T04:25:34;98433.00;;;-0.12;98.90
14273;BME280;7220;49.450;11.052;2023-01-30T04:29:35;98443.47;;;-0.13;98.88
14273;BME280;7220;49.450;11.052;2023-01-30T04:33:35;98442.59;;;-0.16;99.11
14273;BME280;7220;49.450;11.052;2023-01-30T04:37:38;98439.16;;;-0.18;99.34
14273;BME280;7220;49.450;11.052;2023-01-30T04:41:39;98437.44;;;-0.22;99.23
14273;BME280;7220;49.450;11.052;2023-01-30T04:45:45;98431.28;;;-0.13;98.94
14273;BME280;7220;49.450;11.052;2023-01-30T04:49:46;98431.34;;;-0.25;99.81
14273;BME280;7220;49.450;11.052;2023-01-30T04:53:46;98421.63;;;-0.03;99.58
14273;BME280;7220;49.450;11.052;2023-01-30T04:57:46;98423.38;;;-0.02;99.27
14273;BME280;7220;49.450;11.052;2023-01-30T05:01:46;98418.94;;;0.05;100.00
14273;BME280;7220;49.450;11.052;2023-01-30T05:05:47;98402.44;;;0.01;100.00
14273;BME280;7220;49.450;11.052;2023-01-30T05:09:47;98367.63;;;0.01;100.00
14273;BME280;7220;49.450;11.052;2023-01-30T05:13:48;98395.56;;;-0.09;100.00
14273;BME280;7220;49.450;11.052;2023-01-30T05:17:49;98390.34;;;-0.09;100.00
14273;BME280;7220;49.450;11.052;2023-01-30T05:21:49;98388.56;;;-0.07;100.00
14273;BME280;7220;49.450;11.052;2023-01-30T05:25:49;98377.25;;;-0.08;100.00
14273;BME280;7220;49.450;11.052;2023-01-30T05:29:50;98367.66;;;-0.07;100.00
14273;BME280;7220;49.450;11.052;2023-01-30T05:33:51;98380.00;;;-0.25;100.00
14273;BME280;7220;49.450;11.052;2023-01-30T05:37:51;98374.09;;;-0.53;100.00
14273;BME280;7220;49.450;11.052;2023-01-30T05:41:51;98387.22;;;-0.70;100.00
14273;BME280;7220;49.450;11.052;2023-01-30T05:45:56;98382.06;;;-0.73;100.00
14273;BME280;7220;49.450;11.052;2023-01-30T05:49:56;98387.28;;;-0.73;100.00
14273;BME280;7220;49.450;11.052;2023-01-30T05:53:56;98381.22;;;-0.82;100.00
14273;BME280;7220;49.450;11.052;2023-01-30T05:57:57;98375.13;;;-0.81;100.00
14273;BME280;7220;49.450;11.052;2023-01-30T06:01:57;98370.78;;;-0.83;100.00
14273;BME280;7220;49.450;11.052;2023-01-30T06:05:57;98345.50;;;-0.73;100.00
14273;BME280;7220;49.450;11.052;2023-01-30T06:09:57;98342.00;;;-0.66;100.00
14273;BME280;7220;49.450;11.052;2023-01-30T06:13:58;98352.53;;;-0.88;100.00
14273;BME280;7220;49.450;11.052;2023-01-30T06:17:58;98353.34;;;-0.76;100.00
14273;BME280;7220;49.450;11.052;2023-01-30T06:21:58;98348.16;;;-0.81;100.00
14273;BME280;7220;49.450;11.052;2023-01-30T06:25:59;98351.63;;;-0.79;100.00
14273;BME280;7220;49.450;11.052;2023-01-30T06:29:59;98355.91;;;-0.70;100.00
14273;BME280;7220;49.450;11.052;2023-01-30T06:34:00;98368.91;;;-0.59;100.00
14273;BME280;7220;49.450;11.052;2023-01-30T06:38:00;98348.84;;;-0.53;100.00
14273;BME280;7220;49.450;11.052;2023-01-30T06:42:00;98359.28;;;-0.50;100.00
14273;BME280;7220;49.450;11.052;2023-01-30T06:46:00;98370.53;;;-0.40;100.00
14273;BME280;7220;49.450;11.052;2023-01-30T06:50:01;98375.75;;;-0.40;100.00
14273;BME280;7220;49.450;11.052;2023-01-30T06:54:01;98381.81;;;-0.36;100.00
14273;BME280;7220;49.450;11.052;2023-01-30T06:58:12;98367.81;;;-0.26;100.00
14273;BME280;7220;49.450;11.052;2023-01-30T07:02:12;98365.22;;;-0.32;100.00
14273;BME280;7220;49.450;11.052;2023-01-30T07:06:13;98364.34;;;-0.25;100.00
14273;BME280;7220;49.450;11.052;2023-01-30T07:10:13;98336.50;;;-0.29;100.00
14273;BME280;7220;49.450;11.052;2023-01-30T07:14:13;98343.47;;;-0.31;100.00
14273;BME280;7220;49.450;11.052;2023-01-30T07:18:14;98346.13;;;-0.37;100.00
14273;BME280;7220;49.450;11.052;2023-01-30T07:22:15;98346.13;;;-0.36;100.00
14273;BME280;7220;49.450;11.052;2023-01-30T07:26:15;98344.38;;;-0.34;100.00
14273;BME280;7220;49.450;11.052;2023-01-30T07:30:15;98327.81;;;-0.29;100.00
14273;BME280;7220;49.450;11.052;2023-01-30T07:34:16;98327.72;;;-0.19;100.00
14273;BME280;7220;49.450;11.052;2023-01-30T07:38:16;98324.19;;;-0.14;100.00
14273;BME280;7220;49.450;11.052;2023-01-30T07:42:17;98313.78;;;-0.19;100.00
14273;BME280;7220;49.450;11.052;2023-01-30T07:46:17;98313.78;;;-0.18;100.00
14273;BME280;7220;49.450;11.052;2023-01-30T07:50:17;98277.16;;;-0.11;100.00
14273;BME280;7220;49.450;11.052;2023-01-30T07:54:18;98256.03;;;0.10;100.00
14273;BME280;7220;49.450;11.052;2023-01-30T07:58:18;98272.19;;;0.46;100.00
14273;BME280;7220;49.450;11.052;2023-01-30T08:02:18;98284.28;;;0.55;100.00
14273;BME280;7220;49.450;11.052;2023-01-30T08:06:19;98259.03;;;0.53;100.00
14273;BME280;7220;49.450;11.052;2023-01-30T08:10:19;98261.69;;;0.50;100.00
14273;BME280;7220;49.450;11.052;2023-01-30T08:14:19;98256.56;;;0.39;100.00
14273;BME280;7220;49.450;11.052;2023-01-30T08:18:21;98274.84;;;0.40;100.00
14273;BME280;7220;49.450;11.052;2023-01-30T08:22:21;98264.38;;;0.40;100.00
14273;BME280;7220;49.450;11.052;2023-01-30T08:26:21;98260.06;;;0.41;100.00
14273;BME280;7220;49.450;11.052;2023-01-30T08:30:22;98256.53;;;0.43;100.00
14273;BME280;7220;49.450;11.052;2023-01-30T08:34:22;98248.69;;;0.43;100.00
14273;BME280;7220;49.450;11.052;2023-01-30T08:38:23;98241.63;;;0.49;100.00
14273;BME280;7220;49.450;11.052;2023-01-30T08:42:23;98261.72;;;0.46;100.00
14273;BME280;7220;49.450;11.052;2023-01-30T08:46:23;98227.63;;;0.54;100.00
14273;BME280;7220;49.450;11.052;2023-01-30T08:50:23;98252.06;;;0.52;100.00
14273;BME280;7220;49.450;11.052;2023-01-30T08:54:24;98236.28;;;0.58;100.00
14273;BME280;7220;49.450;11.052;2023-01-30T08:58:24;98244.25;;;0.49;100.00
14273;BME280;7220;49.450;11.052;2023-01-30T09:02:24;98222.50;;;0.45;100.00
14273;BME280;7220;49.450;11.052;2023-01-30T09:06:25;98233.94;;;0.39;100.00
14273;BME280;7220;49.450;11.052;2023-01-30T09:10:25;98247.22;;;0.21;100.00
14273;BME280;7220;49.450;11.052;2023-01-30T09:14:25;98237.41;;;0.37;100.00
14273;BME280;7220;49.450;11.052;2023-01-30T09:18:26;98244.38;;;0.39;100.00
14273;BME280;7220;49.450;11.052;2023-01-30T09:22:26;98245.63;;;0.07;100.00
14273;BME280;7220;49.450;11.052;2023-01-30T09:26:26;98251.69;;;0.08;100.00
14273;BME280;7220;49.450;11.052;2023-01-30T09:30:27;98243.91;;;0.03;100.00
14273;BME280;7220;49.450;11.052;2023-01-30T09:34:27;98240.41;;;0.04;100.00
14273;BME280;7220;49.450;11.052;2023-01-30T09:38:27;98203.88;;;0.03;100.00
14273;BME280;7220;49.450;11.052;2023-01-30T09:47:10;98214.25;;;0.07;100.00
14273;BME280;7220;49.450;11.052;2023-01-30T09:55:38;98218.50;;;0.16;100.00
14273;BME280;7220;49.450;11.052;2023-01-30T09:59:48;98201.81;;;0.28;100.00
14273;BME280;7220;49.450;11.052;2023-01-30T10:04:29;98210.44;;;0.36;100.00
14273;BME280;7220;49.450;11.052;2023-01-30T10:08:51;98219.00;;;0.47;100.00
14273;BME280;7220;49.450;11.052;2023-01-30T10:13:25;98205.97;;;0.44;100.00
14273;BME280;7220;49.450;11.052;2023-01-30T10:26:20;98200.31;;;0.75;100.00
14273;BME280;7220;49.450;11.052;2023-01-30T10:30:22;98183.66;;;0.83;100.00
14273;BME280;7220;49.450;11.052;2023-01-30T10:34:28;98187.94;;;0.88;100.00
14273;BME280;7220;49.450;11.052;2023-01-30T10:38:43;98162.63;;;0.89;100.00
14273;BME280;7220;49.450;11.052;2023-01-30T10:42:54;98179.97;;;0.94;100.00
14273;BME280;7220;49.450;11.052;2023-01-30T10:51:33;98164.03;;;1.12;100.00
14273;BME280;7220;49.450;11.052;2023-01-30T10:55:44;98174.44;;;1.15;100.00
14273;BME280;7220;49.450;11.052;2023-01-30T11:04:28;98181.41;;;1.16;100.00
14273;BME280;7220;49.450;11.052;2023-01-30T11:08:32;98176.13;;;1.19;100.00
14273;BME280;7220;49.450;11.052;2023-01-30T11:12:32;98168.16;;;1.25;100.00
14273;BME280;7220;49.450;11.052;2023-01-30T11:16:42;98167.38;;;1.20;100.00
14273;BME280;7220;49.450;11.052;2023-01-30T11:20:45;98167.25;;;1.28;100.00
14273;BME280;7220;49.450;11.052;2023-01-30T11:25:13;98176.84;;;1.29;100.00
14273;BME280;7220;49.450;11.052;2023-01-30T11:33:24;98157.84;;;1.16;100.00
14273;BME280;7220;49.450;11.052;2023-01-30T11:37:32;98164.84;;;1.15;100.00
14273;BME280;7220;49.450;11.052;2023-01-30T11:41:33;98154.34;;;1.17;100.00
14273;BME280;7220;49.450;11.052;2023-01-30T11:45:35;98151.47;;;1.32;100.00
14273;BME280;7220;49.450;11.052;2023-01-30T11:49:45;98161.06;;;1.33;100.00
14273;BME280;7220;49.450;11.052;2023-01-30T11:53:56;98170.81;;;1.23;100.00
14273;BME280;7220;49.450;11.052;2023-01-30T11:57:58;98143.59;;;1.32;100.00
14273;BME280;7220;49.450;11.052;2023-01-30T12:02:33;98139.25;;;1.31;100.00
14273;BME280;7220;49.450;11.052;2023-01-30T12:06:39;98161.91;;;1.35;100.00
14273;BME280;7220;49.450;11.052;2023-01-30T12:10:42;98155.84;;;1.32;100.00
14273;BME280;7220;49.450;11.052;2023-01-30T12:14:45;98156.66;;;1.35;100.00
14273;BME280;7220;49.450;11.052;2023-01-30T12:23:39;98158.16;;;1.49;100.00
14273;BME280;7220;49.450;11.052;2023-01-30T12:28:03;98160.66;;;1.55;100.00
14273;BME280;7220;49.450;11.052;2023-01-30T12:32:13;98144.91;;;1.58;100.00
14273;BME280;7220;49.450;11.052;2023-01-30T12:40:40;98142.84;;;1.76;100.00
14273;BME280;7220;49.450;11.052;2023-01-30T12:53:43;98150.44;;;1.88;100.00
14273;BME280;7220;49.450;11.052;2023-01-30T12:57:53;98155.19;;;2.13;100.00
14273;BME280;7220;49.450;11.052;2023-01-30T13:06:23;98154.44;;;2.06;100.00
14273;BME280;7220;49.450;11.052;2023-01-30T13:15:39;98152.91;;;2.40;100.00
14273;BME280;7220;49.450;11.052;2023-01-30T13:19:50;98142.09;;;2.55;100.00
14273;BME280;7220;49.450;11.052;2023-01-30T13:24:21;98142.00;;;2.58;100.00
14273;BME280;7220;49.450;11.052;2023-01-30T13:28:27;98177.84;;;2.59;100.00
14273;BME280;7220;49.450;11.052;2023-01-30T13:36:41;98138.47;;;2.59;100.00
14273;BME280;7220;49.450;11.052;2023-01-30T13:40:43;98145.41;;;2.63;100.00
14273;BME280;7220;49.450;11.052;2023-01-30T13:44:45;98159.56;;;2.56;100.00
14273;BME280;7220;49.450;11.052;2023-01-30T13:49:08;98147.25;;;2.58;100.00
14273;BME280;7220;49.450;11.052;2023-01-30T13:53:24;98176.16;;;2.57;100.00
14273;BME280;7220;49.450;11.052;2023-01-30T13:57:45;98146.34;;;2.59;100.00
14273;BME280;7220;49.450;11.052;2023-01-30T14:06:03;98132.84;;;2.37;100.00
14273;BME280;7220;49.450;11.052;2023-01-30T14:18:23;98118.31;;;2.61;100.00
14273;BME280;7220;49.450;11.052;2023-01-30T14:22:35;98147.88;;;2.70;100.00
14273;BME280;7220;49.450;11.052;2023-01-30T14:30:53;98154.03;;;2.68;100.00
14273;BME280;7220;49.450;11.052;2023-01-30T14:39:52;98170.06;;;2.94;100.00
14273;BME280;7220;49.450;11.052;2023-01-30T14:43:53;98176.78;;;3.06;100.00
14273;BME280;7220;49.450;11.052;2023-01-30T14:48:25;98189.56;;;2.82;100.00
14273;BME280;7220;49.450;11.052;2023-01-30T14:52:40;98212.25;;;2.84;100.00
14273;BME280;7220;49.450;11.052;2023-01-30T15:01:00;98203.78;;;2.73;100.00
14273;BME280;7220;49.450;11.052;2023-01-30T15:09:00;98201.53;;;2.55;100.00
14273;BME280;7220;49.450;11.052;2023-01-30T15:13:31;98199.84;;;2.52;100.00
14273;BME280;7220;49.450;11.052;2023-01-30T15:17:48;98201.69;;;2.48;100.00
14273;BME280;7220;49.450;11.052;2023-01-30T15:34:56;98240.28;;;2.42;100.00
14273;BME280;7220;49.450;11.052;2023-01-30T15:39:20;98264.09;;;2.31;100.00
14273;BME280;7220;49.450;11.052;2023-01-30T15:43:45;98263.22;;;2.32;100.00
14273;BME280;7220;49.450;11.052;2023-01-30T15:52:03;98288.59;;;2.30;100.00
14273;BME280;7220;49.450;11.052;2023-01-30T15:56:07;98282.50;;;2.29;100.00
14273;BME280;7220;49.450;11.052;2023-01-30T16:00:24;98285.22;;;2.23;100.00
14273;BME280;7220;49.450;11.052;2023-01-30T16:04:27;98282.56;;;2.25;100.00
14273;BME280;7220;49.450;11.052;2023-01-30T16:08:33;98290.47;;;2.23;100.00
14273;BME280;7220;49.450;11.052;2023-01-30T16:12:34;98286.13;;;2.22;100.00
14273;BME280;7220;49.450;11.052;2023-01-30T16:17:01;98325.38;;;2.25;100.00
14273;BME280;7220;49.450;11.052;2023-01-30T16:21:06;98310.56;;;2.24;100.00
14273;BME280;7220;49.450;11.052;2023-01-30T16:25:20;98302.66;;;2.26;100.00
14273;BME280;7220;49.450;11.052;2023-01-30T16:29:23;98322.75;;;2.25;100.00
14273;BME280;7220;49.450;11.052;2023-01-30T16:33:25;98346.41;;;2.24;100.00
14273;BME280;7220;49.450;11.052;2023-01-30T16:37:26;98347.28;;;2.24;100.00
14273;BME280;7220;49.450;11.052;2023-01-30T16:41:34;98343.00;;;2.18;100.00
14273;BME280;7220;49.450;11.052;2023-01-30T16:49:44;98381.38;;;2.23;100.00
14273;BME280;7220;49.450;11.052;2023-01-30T16:53:52;98357.81;;;2.21;100.00
14273;BME280;7220;49.450;11.052;2023-01-30T16:58:00;98381.44;;;2.19;100.00
14273;BME280;7220;49.450;11.052;2023-01-30T17:02:04;98378.75;;;2.23;100.00
14273;BME280;7220;49.450;11.052;2023-01-30T17:06:08;98392.75;;;2.23;100.00
14273;BME280;7220;49.450;11.052;2023-01-30T17:14:27;98402.38;;;2.21;100.00
14273;BME280;7220;49.450;11.052;2023-01-30T17:18:30;98399.75;;;2.21;100.00
14273;BME280;7220;49.450;11.052;2023-01-30T17:22:31;98412.84;;;2.24;100.00
14273;BME280;7220;49.450;11.052;2023-01-30T17:26:31;98411.84;;;2.30;100.00
14273;BME280;7220;49.450;11.052;2023-01-30T17:30:32;98415.38;;;2.27;100.00
14273;BME280;7220;49.450;11.052;2023-01-30T17:34:32;98422.38;;;2.28;100.00
14273;BME280;7220;49.450;11.052;2023-01-30T17:38:33;98410.09;;;2.30;100.00
14273;BME280;7220;49.450;11.052;2023-01-30T17:42:33;98420.53;;;2.33;100.00
14273;BME280;7220;49.450;11.052;2023-01-30T17:46:42;98437.06;;;2.37;100.00
14273;BME280;7220;49.450;11.052;2023-01-30T17:50:44;98424.66;;;2.48;100.00
14273;BME280;7220;49.450;11.052;2023-01-30T17:54:44;98443.19;;;2.38;100.00
14273;BME280;7220;49.450;11.052;2023-01-30T17:58:45;98437.09;;;2.35;100.00
14273;BME280;7220;49.450;11.052;2023-01-30T18:02:45;98450.19;;;2.39;100.00
14273;BME280;7220;49.450;11.052;2023-01-30T18:06:48;98453.53;;;2.47;100.00
14273;BME280;7220;49.450;11.052;2023-01-30T18:10:49;98446.50;;;2.49;100.00
14273;BME280;7220;49.450;11.052;2023-01-30T18:14:50;98462.16;;;2.55;100.00
14273;BME280;7220;49.450;11.052;2023-01-30T18:18:50;98470.69;;;2.66;100.00
14273;BME280;7220;49.450;11.052;2023-01-30T18:22:50;98487.44;;;2.59;100.00
14273;BME280;7220;49.450;11.052;2023-01-30T18:26:51;98497.03;;;2.60;100.00
14273;BME280;7220;49.450;11.052;2023-01-30T18:30:51;98493.41;;;2.67;100.00
14273;BME280;7220;49.450;11.052;2023-01-30T18:34:51;98502.25;;;2.63;100.00
14273;BME280;7220;49.450;11.052;2023-01-30T18:38:52;98493.72;;;2.49;100.00
14273;BME280;7220;49.450;11.052;2023-01-30T18:42:52;98498.97;;;2.49;100.00
14273;BME280;7220;49.450;11.052;2023-01-30T18:46:53;98487.56;;;2.50;100.00
14273;BME280;7220;49.450;11.052;2023-01-30T18:50:53;98491.06;;;2.52;100.00
14273;BME280;7220;49.450;11.052;2023-01-30T18:54:53;98507.78;;;2.45;100.00
14273;BME280;7220;49.450;11.052;2023-01-30T18:58:54;98520.84;;;2.49;100.00
14273;BME280;7220;49.450;11.052;2023-01-30T19:02:58;98529.53;;;2.53;100.00
14273;BME280;7220;49.450;11.052;2023-01-30T19:06:58;98533.06;;;2.50;100.00
14273;BME280;7220;49.450;11.052;2023-01-30T19:11:04;98544.38;;;2.52;100.00
14273;BME280;7220;49.450;11.052;2023-01-30T19:15:24;98544.53;;;2.42;100.00
14273;BME280;7220;49.450;11.052;2023-01-30T19:19:24;98547.22;;;2.39;100.00
14273;BME280;7220;49.450;11.052;2023-01-30T19:23:27;98549.78;;;2.43;100.00
14273;BME280;7220;49.450;11.052;2023-01-30T19:27:27;98564.69;;;2.41;100.00
14273;BME280;7220;49.450;11.052;2023-01-30T19:31:28;98559.41;;;2.43;100.00
14273;BME280;7220;49.450;11.052;2023-01-30T19:35:28;98561.09;;;2.47;100.00
14273;BME280;7220;49.450;11.052;2023-01-30T19:39:28;98568.91;;;2.50;100.00
14273;BME280;7220;49.450;11.052;2023-01-30T19:43:29;98572.38;;;2.52;100.00
14273;BME280;7220;49.450;11.052;2023-01-30T19:47:29;98561.84;;;2.55;100.00
14273;BME280;7220;49.450;11.052;2023-01-30T19:51:32;98560.13;;;2.54;100.00
14273;BME280;7220;49.450;11.052;2023-01-30T19:55:33;98560.19;;;2.49;100.00
14273;BME280;7220;49.450;11.052;2023-01-30T19:59:36;98561.84;;;2.55;100.00
14273;BME280;7220;49.450;11.052;2023-01-30T20:03:39;98581.91;;;2.58;100.00
14273;BME280;7220;49.450;11.052;2023-01-30T20:07:39;98581.88;;;2.59;100.00
14273;BME280;7220;49.450;11.052;2023-01-30T20:11:40;98573.19;;;2.56;100.00
14273;BME280;7220;49.450;11.052;2023-01-30T20:15:41;98581.13;;;2.51;100.00
14273;BME280;7220;49.450;11.052;2023-01-30T20:19:41;98589.88;;;2.50;100.00
14273;BME280;7220;49.450;11.052;2023-01-30T20:23:42;98589.84;;;2.53;100.00
14273;BME280;7220;49.450;11.052;2023-01-30T20:27:43;98591.53;;;2.57;100.00
14273;BME280;7220;49.450;11.052;2023-01-30T20:31:44;98604.63;;;2.60;100.00
14273;BME280;7220;49.450;11.052;2023-01-30T20:35:45;98605.53;;;2.58;100.00
14273;BME280;7220;49.450;11.052;2023-01-30T20:39:45;98604.69;;;2.56;100.00
14273;BME280;7220;49.450;11.052;2023-01-30T20:43:48;98623.91;;;2.58;100.00
14273;BME280;7220;49.450;11.052;2023-01-30T20:47:50;98617.63;;;2.66;100.00
14273;BME280;7220;49.450;11.052;2023-01-30T20:51:53;98628.13;;;2.66;100.00
14273;BME280;7220;49.450;11.052;2023-01-30T20:55:57;98629.88;;;2.67;100.00
14273;BME280;7220;49.450;11.052;2023-01-30T20:59:57;98626.38;;;2.68;100.00
14273;BME280;7220;49.450;11.052;2023-01-30T21:03:58;98621.97;;;2.71;100.00
14273;BME280;7220;49.450;11.052;2023-01-30T21:07:58;98622.81;;;2.71;100.00
14273;BME280;7220;49.450;11.052;2023-01-30T21:11:59;98628.03;;;2.73;100.00
14273;BME280;7220;49.450;11.052;2023-01-30T21:16:09;98636.81;;;2.72;100.00
14273;BME280;7220;49.450;11.052;2023-01-30T21:20:10;98626.41;;;2.65;100.00
14273;BME280;7220;49.450;11.052;2023-01-30T21:24:12;98643.13;;;2.60;100.00
14273;BME280;7220;49.450;11.052;2023-01-30T21:28:13;98660.59;;;2.59;100.00
14273;BME280;7220;49.450;11.052;2023-01-30T21:32:13;98652.63;;;2.65;100.00
14273;BME280;7220;49.450;11.052;2023-01-30T21:36:14;98656.09;;;2.71;100.00
14273;BME280;7220;49.450;11.052;2023-01-30T21:40:14;98674.41;;;2.75;100.00
14273;BME280;7220;49.450;11.052;2023-01-30T21:44:35;98693.56;;;2.80;100.00
14273;BME280;7220;49.450;11.052;2023-01-30T21:48:39;98684.72;;;2.84;100.00
14273;BME280;7220;49.450;11.052;2023-01-30T21:52:40;98694.38;;;2.84;100.00
14273;BME280;7220;49.450;11.052;2023-01-30T21:56:40;98699.59;;;2.87;100.00
14273;BME280;7220;49.450;11.052;2023-01-30T22:00:41;98705.66;;;2.91;100.00
14273;BME280;7220;49.450;11.052;2023-01-30T22:04:41;98692.59;;;2.84;100.00
14273;BME280;7220;49.450;11.052;2023-01-30T22:08:42;98716.25;;;2.83;100.00
14273;BME280;7220;49.450;11.052;2023-01-30T22:12:42;98721.53;;;2.81;100.00
14273;BME280;7220;49.450;11.052;2023-01-30T22:16:42;98719.84;;;2.79;100.00
14273;BME280;7220;49.450;11.052;2023-01-30T22:20:43;98704.13;;;2.76;100.00
14273;BME280;7220;49.450;11.052;2023-01-30T22:24:43;98717.25;;;2.76;100.00
14273;BME280;7220;49.450;11.052;2023-01-30T22:28:44;98721.63;;;2.75;100.00
14273;BME280;7220;49.450;11.052;2023-01-30T22:32:44;98717.34;;;2.70;100.00
14273;BME280;7220;49.450;11.052;2023-01-30T22:36:45;98722.63;;;2.68;100.00
14273;BME280;7220;49.450;11.052;2023-01-30T22:40:46;98733.09;;;2.66;100.00
14273;BME280;7220;49.450;11.052;2023-01-30T22:44:47;98726.19;;;2.59;100.00
14273;BME280;7220;49.450;11.052;2023-01-30T22:48:47;98719.19;;;2.61;100.00
14273;BME280;7220;49.450;11.052;2023-01-30T22:52:47;98740.16;;;2.64;100.00
14273;BME280;7220;49.450;11.052;2023-01-30T22:56:48;98752.34;;;2.68;100.00
14273;BME280;7220;49.450;11.052;2023-01-30T23:00:48;98747.16;;;2.62;100.00
14273;BME280;7220;49.450;11.052;2023-01-30T23:04:52;98761.09;;;2.67;100.00
14273;BME280;7220;49.450;11.052;2023-01-30T23:08:53;98755.81;;;2.71;100.00
14273;BME280;7220;49.450;11.052;2023-01-30T23:12:54;98750.47;;;2.77;100.00
14273;BME280;7220;49.450;11.052;2023-01-30T23:17:06;98766.19;;;2.80;100.00
14273;BME280;7220;49.450;11.052;2023-01-30T23:21:27;98768.81;;;2.80;100.00
14273;BME280;7220;49.450;11.052;2023-01-30T23:25:28;98766.13;;;2.83;100.00
14273;BME280;7220;49.450;11.052;2023-01-30T23:29:29;98780.09;;;2.88;100.00
14273;BME280;7220;49.450;11.052;2023-01-30T23:33:29;98770.44;;;2.89;100.00
14273;BME280;7220;49.450;11.052;2023-01-30T23:37:30;98767.78;;;2.90;100.00
14273;BME280;7220;49.450;11.052;2023-01-30T23:41:49;98767.78;;;2.90;100.00
14273;BME280;7220;49.450;11.052;2023-01-30T23:45:50;98788.88;;;2.84;100.00
14273;BME280;7220;49.450;11.052;2023-01-30T23:49:52;98774.97;;;2.76;100.00